VTK609 UIAA-UNTT
Flight info
| Callsign | VTK609 |
|---|---|
| Flight time | 2h 36m |
| Altitude | 38000 |
| Route | TESLO2F TESLO B478 NERKA A817 RO N869 ROTLI A300 BINBA BINBA1K |
| Aircraft | B738/M-SDE2E3FGHIRWXY/LB1 |
Departure
| Time | 2026-04-25 22:30 |
|---|---|
| Airport | Chita-Kadala International Airport (UIAA) |
Arrival
| Time | 2026-04-26 01:06 |
|---|---|
| Airport | Tomsk Kamov Airport (UNTT) |
| Time | Latitude | Longitude | Altitude | Speed | Heading |
|---|---|---|---|---|---|
| 2026-04-25 22:14 | 52.02153 | 113.30929 | 2236 ft | 0 kts | 288° |
| 2026-04-25 22:23 | 52.02160 | 113.30895 | 2236 ft | 6 kts | 295° |
| 2026-04-25 22:23 | 52.02198 | 113.30875 | 2236 ft | 7 kts | 11° |
| 2026-04-25 22:24 | 52.02244 | 113.30896 | 2236 ft | 7 kts | 17° |
| 2026-04-25 22:24 | 52.02294 | 113.30920 | 2236 ft | 8 kts | 17° |
| 2026-04-25 22:24 | 52.02338 | 113.30965 | 2236 ft | 8 kts | 60° |
| 2026-04-25 22:24 | 52.02338 | 113.31056 | 2236 ft | 9 kts | 100° |
| 2026-04-25 22:25 | 52.02325 | 113.31174 | 2236 ft | 12 kts | 101° |
| 2026-04-25 22:25 | 52.02307 | 113.31321 | 2236 ft | 14 kts | 101° |
| 2026-04-25 22:25 | 52.02289 | 113.31472 | 2236 ft | 13 kts | 101° |
| 2026-04-25 22:25 | 52.02272 | 113.31615 | 2236 ft | 13 kts | 101° |
| 2026-04-25 22:26 | 52.02256 | 113.31757 | 2236 ft | 13 kts | 101° |
| 2026-04-25 22:26 | 52.02239 | 113.31894 | 2236 ft | 12 kts | 101° |
| 2026-04-25 22:26 | 52.02228 | 113.32028 | 2236 ft | 12 kts | 90° |
| 2026-04-25 22:26 | 52.02239 | 113.32158 | 2236 ft | 12 kts | 80° |
| 2026-04-25 22:27 | 52.02252 | 113.32286 | 2236 ft | 11 kts | 81° |
| 2026-04-25 22:27 | 52.02263 | 113.32393 | 2236 ft | 8 kts | 80° |
| 2026-04-25 22:27 | 52.02279 | 113.32454 | 2236 ft | 6 kts | 41° |
| 2026-04-25 22:27 | 52.02320 | 113.32475 | 2235 ft | 7 kts | 11° |
| 2026-04-25 22:28 | 52.02365 | 113.32487 | 2234 ft | 6 kts | 2° |
| 2026-04-25 22:28 | 52.02393 | 113.32440 | 2233 ft | 7 kts | 288° |
| 2026-04-25 22:28 | 52.02397 | 113.32415 | 2233 ft | 0 kts | 280° |
| 2026-04-25 22:28 | 52.02397 | 113.32414 | 2233 ft | 0 kts | 280° |
| 2026-04-25 22:29 | 52.02421 | 113.32205 | 2234 ft | 50 kts | 281° |
| 2026-04-25 22:29 | 52.02529 | 113.31280 | 2238 ft | 116 kts | 281° |
| 2026-04-25 22:29 | 52.02711 | 113.29694 | 2308 ft | 163 kts | 279° |
| 2026-04-25 22:30 | 52.02951 | 113.25881 | 3690 ft | 177 kts | 266° |
| 2026-04-25 22:30 | 52.02810 | 113.23831 | 4331 ft | 191 kts | 265° |
| 2026-04-25 22:30 | 52.02651 | 113.21588 | 4823 ft | 208 kts | 266° |
| 2026-04-25 22:30 | 52.02578 | 113.20002 | 5105 ft | 216 kts | 276° |
| 2026-04-25 22:31 | 52.03296 | 113.16838 | 5550 ft | 241 kts | 303° |
| 2026-04-25 22:31 | 52.04202 | 113.14462 | 6050 ft | 258 kts | 303° |
| 2026-04-25 22:31 | 52.05135 | 113.11907 | 6785 ft | 266 kts | 302° |
| 2026-04-25 22:31 | 52.06057 | 113.09279 | 7633 ft | 268 kts | 301° |
| 2026-04-25 22:32 | 52.06973 | 113.06611 | 8486 ft | 270 kts | 301° |
| 2026-04-25 22:32 | 52.07883 | 113.03922 | 9340 ft | 273 kts | 300° |
| 2026-04-25 22:32 | 52.08489 | 113.02117 | 9905 ft | 275 kts | 300° |
| 2026-04-25 22:32 | 52.09409 | 112.99358 | 10546 ft | 285 kts | 300° |
| 2026-04-25 22:33 | 52.10730 | 112.95381 | 10823 ft | 317 kts | 300° |
| 2026-04-25 22:33 | 52.11454 | 112.93188 | 10993 ft | 330 kts | 300° |
| 2026-04-25 22:33 | 52.12542 | 112.89881 | 11601 ft | 338 kts | 300° |
| 2026-04-25 22:33 | 52.13653 | 112.86485 | 12472 ft | 338 kts | 300° |
| 2026-04-25 22:34 | 52.14747 | 112.83134 | 13375 ft | 338 kts | 300° |
| 2026-04-25 22:34 | 52.15859 | 112.79724 | 14217 ft | 341 kts | 300° |
| 2026-04-25 22:34 | 52.16977 | 112.76293 | 14970 ft | 344 kts | 300° |
| 2026-04-25 22:34 | 52.18103 | 112.72829 | 15754 ft | 346 kts | 300° |
| 2026-04-25 22:35 | 52.19231 | 112.69356 | 16597 ft | 347 kts | 300° |
| 2026-04-25 22:35 | 52.20367 | 112.65855 | 17344 ft | 351 kts | 300° |
| 2026-04-25 22:35 | 52.21517 | 112.62306 | 18088 ft | 355 kts | 300° |
| 2026-04-25 22:35 | 52.22667 | 112.58755 | 18766 ft | 358 kts | 299° |
| 2026-04-25 22:36 | 52.23842 | 112.55119 | 19337 ft | 364 kts | 299° |
| 2026-04-25 22:36 | 52.25033 | 112.51427 | 19877 ft | 370 kts | 299° |
| 2026-04-25 22:36 | 52.26168 | 112.47683 | 20470 ft | 375 kts | 296° |
| 2026-04-25 22:36 | 52.27253 | 112.43790 | 21032 ft | 380 kts | 295° |
| 2026-04-25 22:37 | 52.28345 | 112.39761 | 21599 ft | 385 kts | 295° |
| 2026-04-25 22:37 | 52.29430 | 112.35737 | 22144 ft | 390 kts | 295° |
| 2026-04-25 22:37 | 52.30520 | 112.31707 | 22667 ft | 394 kts | 295° |
| 2026-04-25 22:37 | 52.31640 | 112.27587 | 23201 ft | 399 kts | 295° |
| 2026-04-25 22:38 | 52.32776 | 112.23420 | 23712 ft | 403 kts | 295° |
| 2026-04-25 22:38 | 52.33931 | 112.19191 | 24152 ft | 407 kts | 295° |
| 2026-04-25 22:38 | 52.35090 | 112.14943 | 24620 ft | 410 kts | 295° |
| 2026-04-25 22:38 | 52.36256 | 112.10667 | 25096 ft | 413 kts | 295° |
| 2026-04-25 22:39 | 52.37432 | 112.06346 | 25532 ft | 416 kts | 295° |
| 2026-04-25 22:39 | 52.38597 | 112.02056 | 25954 ft | 419 kts | 295° |
| 2026-04-25 22:39 | 52.39785 | 111.97672 | 26378 ft | 422 kts | 295° |
| 2026-04-25 22:39 | 52.40979 | 111.93263 | 26795 ft | 425 kts | 295° |
| 2026-04-25 22:40 | 52.42181 | 111.88811 | 27200 ft | 428 kts | 295° |
| 2026-04-25 22:40 | 52.43386 | 111.84340 | 27609 ft | 430 kts | 295° |
| 2026-04-25 22:40 | 52.44599 | 111.79831 | 28012 ft | 433 kts | 295° |
| 2026-04-25 22:40 | 52.45819 | 111.75288 | 28397 ft | 436 kts | 295° |
| 2026-04-25 22:41 | 52.47048 | 111.70703 | 28752 ft | 439 kts | 295° |
| 2026-04-25 22:41 | 52.48270 | 111.66156 | 29110 ft | 442 kts | 295° |
| 2026-04-25 22:41 | 52.49522 | 111.61512 | 29466 ft | 444 kts | 295° |
| 2026-04-25 22:41 | 52.50772 | 111.56866 | 29803 ft | 447 kts | 294° |
| 2026-04-25 22:42 | 52.52030 | 111.52173 | 30111 ft | 450 kts | 294° |
| 2026-04-25 22:42 | 52.53284 | 111.47418 | 30309 ft | 455 kts | 294° |
| 2026-04-25 22:42 | 52.54528 | 111.42642 | 30696 ft | 454 kts | 294° |
| 2026-04-25 22:42 | 52.55747 | 111.37934 | 31183 ft | 451 kts | 294° |
| 2026-04-25 22:43 | 52.56968 | 111.33207 | 31667 ft | 448 kts | 294° |
| 2026-04-25 22:43 | 52.58184 | 111.28499 | 32057 ft | 447 kts | 294° |
| 2026-04-25 22:43 | 52.59399 | 111.23788 | 32412 ft | 447 kts | 294° |
| 2026-04-25 22:43 | 52.60613 | 111.19076 | 32780 ft | 447 kts | 294° |
| 2026-04-25 22:44 | 52.61824 | 111.14374 | 33191 ft | 445 kts | 294° |
| 2026-04-25 22:44 | 52.63030 | 111.09675 | 33599 ft | 443 kts | 294° |
| 2026-04-25 22:44 | 52.64215 | 111.05054 | 33979 ft | 443 kts | 294° |
| 2026-04-25 22:44 | 52.65411 | 111.00379 | 34325 ft | 442 kts | 294° |
| 2026-04-25 22:45 | 52.66608 | 110.95690 | 34620 ft | 441 kts | 294° |
| 2026-04-25 22:45 | 52.67798 | 110.91018 | 34912 ft | 441 kts | 294° |
| 2026-04-25 22:45 | 52.68984 | 110.86355 | 35185 ft | 441 kts | 294° |
| 2026-04-25 22:45 | 52.70167 | 110.81691 | 35450 ft | 441 kts | 294° |
| 2026-04-25 22:46 | 52.71351 | 110.77016 | 35731 ft | 440 kts | 294° |
| 2026-04-25 22:46 | 52.72529 | 110.72349 | 36006 ft | 440 kts | 294° |
| 2026-04-25 22:46 | 52.73689 | 110.67749 | 36267 ft | 440 kts | 294° |
| 2026-04-25 22:46 | 52.74863 | 110.63083 | 36520 ft | 439 kts | 294° |
| 2026-04-25 22:47 | 52.76034 | 110.58417 | 36803 ft | 439 kts | 294° |
| 2026-04-25 22:47 | 52.77202 | 110.53756 | 37067 ft | 439 kts | 294° |
| 2026-04-25 22:47 | 52.78368 | 110.49090 | 37311 ft | 439 kts | 294° |
| 2026-04-25 22:47 | 52.79532 | 110.44423 | 37571 ft | 438 kts | 294° |
| 2026-04-25 22:48 | 52.80690 | 110.39772 | 37829 ft | 438 kts | 294° |
| 2026-04-25 22:48 | 52.81848 | 110.35111 | 38062 ft | 438 kts | 294° |
| 2026-04-25 22:48 | 52.83003 | 110.30449 | 38287 ft | 438 kts | 294° |
| 2026-04-25 22:48 | 52.84163 | 110.25763 | 38276 ft | 441 kts | 294° |
| 2026-04-25 22:49 | 52.86478 | 110.16375 | 38299 ft | 439 kts | 294° |
| 2026-04-25 22:49 | 52.88754 | 110.07100 | 38297 ft | 435 kts | 294° |
| 2026-04-25 22:50 | 52.91023 | 109.97825 | 38310 ft | 433 kts | 294° |
| 2026-04-25 22:50 | 52.93272 | 109.88582 | 38313 ft | 431 kts | 294° |
| 2026-04-25 22:51 | 52.95493 | 109.79387 | 38307 ft | 431 kts | 294° |
| 2026-04-25 22:51 | 52.97722 | 109.70114 | 38327 ft | 432 kts | 294° |
| 2026-04-25 22:52 | 52.99949 | 109.60815 | 38310 ft | 434 kts | 294° |
| 2026-04-25 22:52 | 53.01806 | 109.53035 | 38312 ft | 436 kts | 294° |
| 2026-04-25 22:53 | 53.04405 | 109.42097 | 38313 ft | 438 kts | 294° |
| 2026-04-25 22:53 | 53.06639 | 109.32647 | 38319 ft | 440 kts | 294° |
| 2026-04-25 22:54 | 53.08861 | 109.23207 | 38320 ft | 441 kts | 293° |
| 2026-04-25 22:54 | 53.11096 | 109.13670 | 38320 ft | 442 kts | 294° |
| 2026-04-25 22:55 | 53.13323 | 109.04126 | 38322 ft | 442 kts | 293° |
| 2026-04-25 22:55 | 53.15545 | 108.94561 | 38320 ft | 442 kts | 293° |
| 2026-04-25 22:56 | 53.17740 | 108.85070 | 38317 ft | 441 kts | 293° |
| 2026-04-25 22:56 | 53.19937 | 108.75523 | 38321 ft | 440 kts | 293° |
| 2026-04-25 22:57 | 53.22125 | 108.65979 | 38314 ft | 439 kts | 293° |
| 2026-04-25 22:57 | 53.24296 | 108.56465 | 38321 ft | 438 kts | 293° |
| 2026-04-25 22:58 | 53.26442 | 108.47016 | 38317 ft | 437 kts | 293° |
| 2026-04-25 22:58 | 53.28596 | 108.37489 | 38321 ft | 436 kts | 293° |
| 2026-04-25 22:59 | 53.30727 | 108.28021 | 38323 ft | 436 kts | 293° |
| 2026-04-25 22:59 | 53.32847 | 108.18563 | 38317 ft | 435 kts | 293° |
| 2026-04-25 23:00 | 53.34966 | 108.09073 | 38328 ft | 435 kts | 293° |
| 2026-04-25 23:00 | 53.37079 | 107.99571 | 38327 ft | 435 kts | 293° |
| 2026-04-25 23:01 | 53.39189 | 107.90043 | 38323 ft | 436 kts | 293° |
| 2026-04-25 23:01 | 53.41283 | 107.80548 | 38321 ft | 437 kts | 293° |
| 2026-04-25 23:02 | 53.43385 | 107.70966 | 38322 ft | 437 kts | 293° |
| 2026-04-25 23:02 | 53.45485 | 107.61353 | 38320 ft | 438 kts | 293° |
| 2026-04-25 23:03 | 53.47565 | 107.51785 | 38319 ft | 439 kts | 292° |
| 2026-04-25 23:03 | 53.49661 | 107.42100 | 38328 ft | 440 kts | 292° |
| 2026-04-25 23:04 | 53.51396 | 107.34048 | 38321 ft | 441 kts | 292° |
| 2026-04-25 23:04 | 53.53816 | 107.22763 | 38313 ft | 441 kts | 292° |
| 2026-04-25 23:05 | 53.55886 | 107.13061 | 38318 ft | 441 kts | 292° |
| 2026-04-25 23:05 | 53.57947 | 107.03349 | 38322 ft | 441 kts | 292° |
| 2026-04-25 23:06 | 53.60007 | 106.93603 | 38332 ft | 441 kts | 292° |
| 2026-04-25 23:06 | 53.62056 | 106.83860 | 38331 ft | 441 kts | 292° |
| 2026-04-25 23:07 | 53.64078 | 106.74193 | 38338 ft | 440 kts | 292° |
| 2026-04-25 23:07 | 53.66109 | 106.64446 | 38344 ft | 439 kts | 292° |
| 2026-04-25 23:08 | 53.68126 | 106.54712 | 38343 ft | 438 kts | 292° |
| 2026-04-25 23:08 | 53.70116 | 106.45062 | 38346 ft | 438 kts | 292° |
| 2026-04-25 23:09 | 53.72109 | 106.35350 | 38346 ft | 437 kts | 292° |
| 2026-04-25 23:09 | 53.74089 | 106.25660 | 38339 ft | 437 kts | 292° |
| 2026-04-25 23:10 | 53.76064 | 106.15941 | 38347 ft | 436 kts | 292° |
| 2026-04-25 23:10 | 53.78029 | 106.06225 | 38349 ft | 436 kts | 292° |
| 2026-04-25 23:11 | 53.79976 | 105.96553 | 38351 ft | 436 kts | 292° |
| 2026-04-25 23:11 | 53.81927 | 105.86808 | 38342 ft | 437 kts | 292° |
| 2026-04-25 23:12 | 53.83876 | 105.77028 | 38342 ft | 437 kts | 292° |
| 2026-04-25 23:12 | 53.85804 | 105.67302 | 38344 ft | 437 kts | 292° |
| 2026-04-25 23:13 | 53.87405 | 105.59191 | 38344 ft | 437 kts | 292° |
| 2026-04-25 23:13 | 53.89329 | 105.49406 | 38345 ft | 437 kts | 292° |
| 2026-04-25 23:14 | 53.91241 | 105.39620 | 38340 ft | 437 kts | 292° |
| 2026-04-25 23:14 | 53.93135 | 105.29854 | 38347 ft | 437 kts | 291° |
| 2026-04-25 23:15 | 53.95031 | 105.20023 | 38336 ft | 438 kts | 291° |
| 2026-04-25 23:15 | 53.96923 | 105.10165 | 38338 ft | 438 kts | 291° |
| 2026-04-25 23:16 | 53.98805 | 105.00315 | 38336 ft | 438 kts | 291° |
| 2026-04-25 23:16 | 54.00672 | 104.90497 | 38331 ft | 439 kts | 291° |
| 2026-04-25 23:17 | 54.02540 | 104.80620 | 38325 ft | 438 kts | 291° |
| 2026-04-25 23:17 | 54.04396 | 104.70754 | 38336 ft | 438 kts | 291° |
| 2026-04-25 23:18 | 54.06250 | 104.60856 | 38333 ft | 437 kts | 291° |
| 2026-04-25 23:18 | 54.08090 | 104.50982 | 38342 ft | 437 kts | 291° |
| 2026-04-25 23:19 | 54.09912 | 104.41153 | 38329 ft | 437 kts | 291° |
| 2026-04-25 23:19 | 54.11733 | 104.31268 | 38336 ft | 436 kts | 291° |
| 2026-04-25 23:20 | 54.13547 | 104.21377 | 38347 ft | 436 kts | 291° |
| 2026-04-25 23:20 | 54.15348 | 104.11505 | 38343 ft | 436 kts | 291° |
| 2026-04-25 23:21 | 54.17143 | 104.01607 | 38341 ft | 436 kts | 291° |
| 2026-04-25 23:21 | 54.18918 | 103.91770 | 38349 ft | 435 kts | 291° |
| 2026-04-25 23:22 | 54.20691 | 103.81888 | 38351 ft | 435 kts | 291° |
| 2026-04-25 23:23 | 54.23333 | 103.67068 | 38364 ft | 434 kts | 291° |
| 2026-04-25 23:23 | 54.25085 | 103.57176 | 38362 ft | 434 kts | 291° |
| 2026-04-25 23:24 | 54.26830 | 103.47263 | 38358 ft | 434 kts | 291° |
| 2026-04-25 23:24 | 54.28559 | 103.37389 | 38353 ft | 434 kts | 291° |
| 2026-04-25 23:25 | 54.30288 | 103.27470 | 38367 ft | 433 kts | 291° |
| 2026-04-25 23:25 | 54.31959 | 103.17595 | 38368 ft | 434 kts | 290° |
| 2026-04-25 23:26 | 54.33497 | 103.07561 | 38365 ft | 434 kts | 289° |
| 2026-04-25 23:26 | 54.35013 | 102.97586 | 38365 ft | 434 kts | 289° |
| 2026-04-25 23:27 | 54.36548 | 102.87559 | 38356 ft | 433 kts | 289° |
| 2026-04-25 23:27 | 54.38063 | 102.77631 | 38378 ft | 432 kts | 289° |
| 2026-04-25 23:28 | 54.39596 | 102.67642 | 38377 ft | 432 kts | 290° |
| 2026-04-25 23:28 | 54.41128 | 102.57643 | 38388 ft | 432 kts | 289° |
| 2026-04-25 23:29 | 54.42639 | 102.47716 | 38387 ft | 432 kts | 289° |
| 2026-04-25 23:29 | 54.44151 | 102.37717 | 38353 ft | 432 kts | 289° |
| 2026-04-25 23:30 | 54.45648 | 102.27738 | 38373 ft | 431 kts | 289° |
| 2026-04-25 23:30 | 54.47138 | 102.17750 | 38391 ft | 430 kts | 289° |
| 2026-04-25 23:31 | 54.48606 | 102.07849 | 38387 ft | 430 kts | 289° |
| 2026-04-25 23:31 | 54.50076 | 101.97874 | 38387 ft | 429 kts | 289° |
| 2026-04-25 23:32 | 54.51536 | 101.87903 | 38389 ft | 429 kts | 289° |
| 2026-04-25 23:32 | 54.52986 | 101.77931 | 38379 ft | 428 kts | 289° |
| 2026-04-25 23:33 | 54.54426 | 101.67966 | 38379 ft | 428 kts | 289° |
| 2026-04-25 23:33 | 54.55847 | 101.58078 | 38388 ft | 427 kts | 289° |
| 2026-04-25 23:34 | 54.57268 | 101.48123 | 38383 ft | 427 kts | 289° |
| 2026-04-25 23:34 | 54.58679 | 101.38167 | 38382 ft | 427 kts | 289° |
| 2026-04-25 23:35 | 54.60073 | 101.28272 | 38373 ft | 426 kts | 289° |
| 2026-04-25 23:35 | 54.61465 | 101.18330 | 38357 ft | 426 kts | 289° |
| 2026-04-25 23:36 | 54.62848 | 101.08383 | 38362 ft | 426 kts | 289° |
| 2026-04-25 23:36 | 54.64225 | 100.98417 | 38368 ft | 426 kts | 289° |
| 2026-04-25 23:37 | 54.65595 | 100.88434 | 38349 ft | 427 kts | 289° |
| 2026-04-25 23:37 | 54.66958 | 100.78435 | 38354 ft | 426 kts | 289° |
| 2026-04-25 23:38 | 54.68305 | 100.68485 | 38353 ft | 426 kts | 289° |
| 2026-04-25 23:38 | 54.69648 | 100.58502 | 38364 ft | 426 kts | 288° |
| 2026-04-25 23:39 | 54.70976 | 100.48559 | 38353 ft | 426 kts | 288° |
| 2026-04-25 23:39 | 54.72302 | 100.38560 | 38359 ft | 426 kts | 288° |
| 2026-04-25 23:40 | 54.73619 | 100.28569 | 38358 ft | 426 kts | 288° |
| 2026-04-25 23:40 | 54.74921 | 100.18620 | 38367 ft | 425 kts | 288° |
| 2026-04-25 23:41 | 54.76222 | 100.08606 | 38366 ft | 425 kts | 288° |
| 2026-04-25 23:41 | 54.77513 | 99.98599 | 38367 ft | 425 kts | 288° |
| 2026-04-25 23:42 | 54.78791 | 99.88629 | 38363 ft | 425 kts | 288° |
| 2026-04-25 23:42 | 54.80068 | 99.78589 | 38339 ft | 425 kts | 288° |
| 2026-04-25 23:43 | 54.81323 | 99.68662 | 38362 ft | 424 kts | 288° |
| 2026-04-25 23:43 | 54.82578 | 99.58655 | 38371 ft | 424 kts | 288° |
| 2026-04-25 23:44 | 54.83826 | 99.48642 | 38375 ft | 424 kts | 288° |
| 2026-04-25 23:44 | 54.85054 | 99.38702 | 38377 ft | 424 kts | 288° |
| 2026-04-25 23:45 | 54.86282 | 99.28702 | 38378 ft | 423 kts | 288° |
| 2026-04-25 23:45 | 54.87503 | 99.18679 | 38373 ft | 423 kts | 287° |
| 2026-04-25 23:46 | 54.88713 | 99.08693 | 38388 ft | 422 kts | 287° |
| 2026-04-25 23:46 | 54.89870 | 98.98705 | 38383 ft | 423 kts | 287° |
| 2026-04-25 23:47 | 54.90963 | 98.88641 | 38379 ft | 424 kts | 286° |
| 2026-04-25 23:47 | 54.92050 | 98.78555 | 38381 ft | 424 kts | 286° |
| 2026-04-25 23:48 | 54.93130 | 98.68527 | 38374 ft | 423 kts | 286° |
| 2026-04-25 23:48 | 54.94211 | 98.58444 | 38375 ft | 423 kts | 286° |
| 2026-04-25 23:49 | 54.95285 | 98.48355 | 38377 ft | 423 kts | 286° |
| 2026-04-25 23:49 | 54.96344 | 98.38317 | 38377 ft | 424 kts | 286° |
| 2026-04-25 23:50 | 54.97403 | 98.28198 | 38374 ft | 424 kts | 286° |
| 2026-04-25 23:50 | 54.98453 | 98.18069 | 38349 ft | 424 kts | 285° |
| 2026-04-25 23:51 | 54.99486 | 98.08021 | 38366 ft | 423 kts | 285° |
| 2026-04-25 23:51 | 55.00517 | 97.97913 | 38380 ft | 423 kts | 285° |
| 2026-04-25 23:52 | 55.01540 | 97.87799 | 38372 ft | 423 kts | 285° |
| 2026-04-25 23:52 | 55.02548 | 97.77744 | 38375 ft | 423 kts | 285° |
| 2026-04-25 23:53 | 55.03553 | 97.67621 | 38362 ft | 423 kts | 285° |
| 2026-04-25 23:53 | 55.04548 | 97.57515 | 38360 ft | 422 kts | 285° |
| 2026-04-25 23:54 | 55.05530 | 97.47455 | 38365 ft | 422 kts | 285° |
| 2026-04-25 23:54 | 55.06506 | 97.37362 | 38372 ft | 422 kts | 285° |
| 2026-04-25 23:55 | 55.07476 | 97.27248 | 38372 ft | 421 kts | 285° |
| 2026-04-25 23:55 | 55.08429 | 97.17224 | 38366 ft | 421 kts | 285° |
| 2026-04-25 23:56 | 55.09374 | 97.07118 | 38353 ft | 420 kts | 284° |
| 2026-04-25 23:56 | 55.10251 | 96.97072 | 38359 ft | 420 kts | 283° |
| 2026-04-25 23:57 | 55.10966 | 96.88673 | 38357 ft | 420 kts | 283° |
| 2026-04-25 23:57 | 55.11825 | 96.78558 | 38360 ft | 420 kts | 283° |
| 2026-04-25 23:58 | 55.12678 | 96.68453 | 38347 ft | 420 kts | 283° |
| 2026-04-25 23:58 | 55.13523 | 96.58352 | 38321 ft | 420 kts | 283° |
| 2026-04-25 23:59 | 55.14354 | 96.48317 | 38340 ft | 419 kts | 283° |
| 2026-04-25 23:59 | 55.15184 | 96.38204 | 38343 ft | 419 kts | 283° |
| 2026-04-26 00:00 | 55.16000 | 96.28160 | 38344 ft | 419 kts | 282° |
| 2026-04-26 00:00 | 55.16808 | 96.18071 | 38341 ft | 419 kts | 283° |
| 2026-04-26 00:01 | 55.17613 | 96.07962 | 38347 ft | 419 kts | 283° |
| 2026-04-26 00:01 | 55.18407 | 95.97869 | 38332 ft | 419 kts | 282° |
| 2026-04-26 00:02 | 55.19190 | 95.87804 | 38336 ft | 419 kts | 282° |
| 2026-04-26 00:02 | 55.19968 | 95.77686 | 38328 ft | 419 kts | 282° |
| 2026-04-26 00:03 | 55.20739 | 95.67547 | 38328 ft | 420 kts | 282° |
| 2026-04-26 00:03 | 55.21502 | 95.57394 | 38335 ft | 420 kts | 282° |
| 2026-04-26 00:04 | 55.22252 | 95.47300 | 38306 ft | 420 kts | 281° |
| 2026-04-26 00:04 | 55.22999 | 95.37133 | 38323 ft | 420 kts | 281° |
| 2026-04-26 00:05 | 55.23736 | 95.26976 | 38336 ft | 420 kts | 281° |
| 2026-04-26 00:05 | 55.24464 | 95.16828 | 38332 ft | 421 kts | 281° |
| 2026-04-26 00:06 | 55.25188 | 95.06628 | 38328 ft | 421 kts | 281° |
| 2026-04-26 00:06 | 55.25904 | 94.96418 | 38325 ft | 422 kts | 281° |
| 2026-04-26 00:07 | 55.26925 | 94.86329 | 38329 ft | 417 kts | 291° |
| 2026-04-26 00:07 | 55.29168 | 94.77102 | 38322 ft | 414 kts | 297° |
| 2026-04-26 00:08 | 55.31572 | 94.67877 | 38317 ft | 414 kts | 297° |
| 2026-04-26 00:08 | 55.33955 | 94.58611 | 38308 ft | 415 kts | 297° |
| 2026-04-26 00:09 | 55.36299 | 94.49393 | 38308 ft | 415 kts | 296° |
| 2026-04-26 00:09 | 55.38642 | 94.40112 | 38279 ft | 415 kts | 296° |
| 2026-04-26 00:10 | 55.40978 | 94.30819 | 38292 ft | 415 kts | 296° |
| 2026-04-26 00:10 | 55.43314 | 94.21489 | 38288 ft | 415 kts | 296° |
| 2026-04-26 00:11 | 55.45630 | 94.12200 | 38310 ft | 416 kts | 296° |
| 2026-04-26 00:11 | 55.47950 | 94.02852 | 38292 ft | 416 kts | 296° |
| 2026-04-26 00:12 | 55.50264 | 93.93493 | 38283 ft | 416 kts | 296° |
| 2026-04-26 00:12 | 55.52571 | 93.84118 | 38269 ft | 415 kts | 295° |
| 2026-04-26 00:13 | 55.54856 | 93.74797 | 38264 ft | 415 kts | 295° |
| 2026-04-26 00:13 | 55.57141 | 93.65432 | 38272 ft | 415 kts | 295° |
| 2026-04-26 00:14 | 55.59420 | 93.56055 | 38263 ft | 415 kts | 295° |
| 2026-04-26 00:14 | 55.61696 | 93.46650 | 38266 ft | 415 kts | 295° |
| 2026-04-26 00:15 | 55.63964 | 93.37235 | 38249 ft | 415 kts | 295° |
| 2026-04-26 00:15 | 55.66220 | 93.27829 | 38249 ft | 415 kts | 295° |
| 2026-04-26 00:16 | 55.68460 | 93.18451 | 38261 ft | 416 kts | 295° |
| 2026-04-26 00:16 | 55.70711 | 93.08985 | 38235 ft | 417 kts | 295° |
| 2026-04-26 00:17 | 55.72962 | 92.99478 | 38244 ft | 418 kts | 295° |
| 2026-04-26 00:17 | 55.75211 | 92.89935 | 38249 ft | 419 kts | 294° |
| 2026-04-26 00:18 | 55.77454 | 92.80379 | 38202 ft | 419 kts | 294° |
| 2026-04-26 00:18 | 55.79684 | 92.70832 | 38222 ft | 420 kts | 294° |
| 2026-04-26 00:19 | 55.81916 | 92.61234 | 38228 ft | 420 kts | 294° |
| 2026-04-26 00:19 | 55.84147 | 92.51607 | 38225 ft | 421 kts | 294° |
| 2026-04-26 00:20 | 55.86396 | 92.41974 | 38215 ft | 421 kts | 294° |
| 2026-04-26 00:20 | 55.88664 | 92.32342 | 38219 ft | 422 kts | 294° |
| 2026-04-26 00:21 | 55.90927 | 92.22687 | 38201 ft | 422 kts | 294° |
| 2026-04-26 00:21 | 55.93162 | 92.13088 | 38213 ft | 421 kts | 294° |
| 2026-04-26 00:22 | 55.95406 | 92.03400 | 38210 ft | 421 kts | 294° |
| 2026-04-26 00:22 | 55.97637 | 91.93721 | 38218 ft | 421 kts | 294° |
| 2026-04-26 00:23 | 55.99846 | 91.84097 | 38205 ft | 421 kts | 294° |
| 2026-04-26 00:23 | 56.02061 | 91.74399 | 38204 ft | 421 kts | 294° |
| 2026-04-26 00:24 | 56.04256 | 91.64747 | 38212 ft | 420 kts | 293° |
| 2026-04-26 00:24 | 56.06453 | 91.55045 | 38192 ft | 420 kts | 293° |
| 2026-04-26 00:25 | 56.08640 | 91.45339 | 38197 ft | 419 kts | 293° |
| 2026-04-26 00:25 | 56.10817 | 91.35633 | 38192 ft | 419 kts | 293° |
| 2026-04-26 00:26 | 56.12984 | 91.25925 | 38193 ft | 419 kts | 293° |
| 2026-04-26 00:26 | 56.15138 | 91.16232 | 38192 ft | 418 kts | 293° |
| 2026-04-26 00:27 | 56.17273 | 91.06581 | 38190 ft | 418 kts | 293° |
| 2026-04-26 00:27 | 56.19413 | 90.96860 | 38194 ft | 418 kts | 293° |
| 2026-04-26 00:28 | 56.21547 | 90.87123 | 38186 ft | 418 kts | 292° |
| 2026-04-26 00:28 | 56.23661 | 90.77430 | 38183 ft | 418 kts | 292° |
| 2026-04-26 00:29 | 56.25777 | 90.67691 | 38181 ft | 418 kts | 292° |
| 2026-04-26 00:29 | 56.27400 | 90.57598 | 38178 ft | 422 kts | 278° |
| 2026-04-26 00:30 | 56.27817 | 90.47035 | 38179 ft | 423 kts | 276° |
| 2026-04-26 00:30 | 56.28180 | 90.36522 | 38187 ft | 423 kts | 276° |
| 2026-04-26 00:31 | 56.28562 | 90.25929 | 38181 ft | 423 kts | 276° |
| 2026-04-26 00:31 | 56.28948 | 90.15380 | 38183 ft | 424 kts | 276° |
| 2026-04-26 00:32 | 56.29332 | 90.04763 | 38183 ft | 424 kts | 276° |
| 2026-04-26 00:32 | 56.29889 | 89.88880 | 38176 ft | 424 kts | 275° |
| 2026-04-26 00:33 | 56.30251 | 89.78230 | 38178 ft | 424 kts | 275° |
| 2026-04-26 00:33 | 56.30600 | 89.67668 | 38174 ft | 425 kts | 275° |
| 2026-04-26 00:34 | 56.30943 | 89.57031 | 38183 ft | 424 kts | 275° |
| 2026-04-26 00:34 | 56.31277 | 89.46391 | 38173 ft | 424 kts | 275° |
| 2026-04-26 00:35 | 56.31601 | 89.35764 | 38169 ft | 424 kts | 275° |
| 2026-04-26 00:35 | 56.31914 | 89.25215 | 38156 ft | 424 kts | 275° |
| 2026-04-26 00:36 | 56.32220 | 89.14604 | 38160 ft | 423 kts | 275° |
| 2026-04-26 00:36 | 56.32516 | 89.04003 | 38155 ft | 423 kts | 275° |
| 2026-04-26 00:37 | 56.32663 | 88.98691 | 37752 ft | 428 kts | 275° |
| 2026-04-26 00:37 | 56.32806 | 88.93398 | 37262 ft | 425 kts | 275° |
| 2026-04-26 00:37 | 56.32901 | 88.89810 | 36875 ft | 423 kts | 275° |
| 2026-04-26 00:37 | 56.33092 | 88.82828 | 36155 ft | 420 kts | 275° |
| 2026-04-26 00:38 | 56.33241 | 88.77581 | 35512 ft | 420 kts | 275° |
| 2026-04-26 00:38 | 56.33341 | 88.74081 | 35080 ft | 420 kts | 275° |
| 2026-04-26 00:38 | 56.33492 | 88.68750 | 34416 ft | 421 kts | 275° |
| 2026-04-26 00:38 | 56.33636 | 88.63544 | 33833 ft | 419 kts | 275° |
| 2026-04-26 00:39 | 56.33778 | 88.58317 | 33296 ft | 415 kts | 275° |
| 2026-04-26 00:39 | 56.33915 | 88.53147 | 32825 ft | 410 kts | 274° |
| 2026-04-26 00:39 | 56.34049 | 88.48040 | 32342 ft | 405 kts | 274° |
| 2026-04-26 00:39 | 56.34178 | 88.43000 | 31881 ft | 401 kts | 274° |
| 2026-04-26 00:40 | 56.34305 | 88.37999 | 31407 ft | 397 kts | 274° |
| 2026-04-26 00:40 | 56.34429 | 88.33049 | 30949 ft | 393 kts | 274° |
| 2026-04-26 00:40 | 56.34549 | 88.28150 | 30502 ft | 389 kts | 273° |
| 2026-04-26 00:40 | 56.34665 | 88.23282 | 30025 ft | 386 kts | 273° |
| 2026-04-26 00:41 | 56.34779 | 88.18480 | 29519 ft | 382 kts | 273° |
| 2026-04-26 00:41 | 56.34891 | 88.13723 | 29059 ft | 377 kts | 272° |
| 2026-04-26 00:41 | 56.34998 | 88.09080 | 28604 ft | 373 kts | 272° |
| 2026-04-26 00:41 | 56.35103 | 88.04436 | 28142 ft | 369 kts | 272° |
| 2026-04-26 00:42 | 56.35206 | 87.99805 | 27682 ft | 370 kts | 272° |
| 2026-04-26 00:42 | 56.35309 | 87.95127 | 27218 ft | 374 kts | 272° |
| 2026-04-26 00:42 | 56.35409 | 87.90450 | 26743 ft | 371 kts | 272° |
| 2026-04-26 00:42 | 56.35507 | 87.85817 | 26280 ft | 368 kts | 272° |
| 2026-04-26 00:43 | 56.35602 | 87.81219 | 25824 ft | 365 kts | 272° |
| 2026-04-26 00:43 | 56.35695 | 87.76659 | 25377 ft | 362 kts | 272° |
| 2026-04-26 00:43 | 56.35784 | 87.72205 | 24940 ft | 359 kts | 272° |
| 2026-04-26 00:43 | 56.35872 | 87.67722 | 24489 ft | 357 kts | 271° |
| 2026-04-26 00:44 | 56.35958 | 87.63268 | 24057 ft | 355 kts | 271° |
| 2026-04-26 00:44 | 56.36042 | 87.58821 | 23607 ft | 353 kts | 271° |
| 2026-04-26 00:44 | 56.36124 | 87.54411 | 23097 ft | 351 kts | 271° |
| 2026-04-26 00:44 | 56.36203 | 87.50027 | 22627 ft | 348 kts | 271° |
| 2026-04-26 00:45 | 56.36281 | 87.45692 | 22188 ft | 345 kts | 271° |
| 2026-04-26 00:45 | 56.36356 | 87.41386 | 21752 ft | 341 kts | 271° |
| 2026-04-26 00:45 | 56.36429 | 87.37123 | 21326 ft | 338 kts | 271° |
| 2026-04-26 00:45 | 56.36500 | 87.32893 | 20896 ft | 336 kts | 271° |
| 2026-04-26 00:46 | 56.36569 | 87.28696 | 20470 ft | 333 kts | 271° |
| 2026-04-26 00:46 | 56.36636 | 87.24534 | 20065 ft | 331 kts | 271° |
| 2026-04-26 00:46 | 56.36702 | 87.20400 | 19640 ft | 328 kts | 271° |
| 2026-04-26 00:46 | 56.36765 | 87.16295 | 19234 ft | 326 kts | 270° |
| 2026-04-26 00:47 | 56.36826 | 87.12276 | 18838 ft | 324 kts | 270° |
| 2026-04-26 00:47 | 56.36886 | 87.08225 | 18431 ft | 322 kts | 270° |
| 2026-04-26 00:47 | 56.36944 | 87.04199 | 17968 ft | 320 kts | 270° |
| 2026-04-26 00:47 | 56.37001 | 87.00192 | 17523 ft | 317 kts | 270° |
| 2026-04-26 00:48 | 56.37056 | 86.96217 | 17128 ft | 314 kts | 270° |
| 2026-04-26 00:48 | 56.37109 | 86.92296 | 16710 ft | 311 kts | 270° |
| 2026-04-26 00:48 | 56.37160 | 86.88404 | 16318 ft | 308 kts | 270° |
| 2026-04-26 00:48 | 56.37209 | 86.84605 | 15925 ft | 306 kts | 270° |
| 2026-04-26 00:49 | 56.37257 | 86.80773 | 15531 ft | 303 kts | 270° |
| 2026-04-26 00:49 | 56.37304 | 86.76965 | 15138 ft | 301 kts | 270° |
| 2026-04-26 00:49 | 56.37349 | 86.73205 | 14757 ft | 299 kts | 270° |
| 2026-04-26 00:49 | 56.37392 | 86.69510 | 14384 ft | 297 kts | 270° |
| 2026-04-26 00:50 | 56.37434 | 86.65796 | 14007 ft | 295 kts | 270° |
| 2026-04-26 00:50 | 56.37475 | 86.62109 | 13598 ft | 293 kts | 270° |
| 2026-04-26 00:50 | 56.37515 | 86.58437 | 13191 ft | 293 kts | 270° |
| 2026-04-26 00:50 | 56.37554 | 86.54730 | 12798 ft | 296 kts | 270° |
| 2026-04-26 00:51 | 56.37592 | 86.50993 | 12407 ft | 300 kts | 269° |
| 2026-04-26 00:51 | 56.37629 | 86.47217 | 12007 ft | 302 kts | 269° |
| 2026-04-26 00:51 | 56.37665 | 86.43438 | 11611 ft | 300 kts | 269° |
| 2026-04-26 00:51 | 56.37700 | 86.39656 | 11208 ft | 300 kts | 269° |
| 2026-04-26 00:52 | 56.37733 | 86.35951 | 10823 ft | 299 kts | 269° |
| 2026-04-26 00:52 | 56.37766 | 86.32197 | 10573 ft | 298 kts | 269° |
| 2026-04-26 00:52 | 56.37798 | 86.28484 | 10404 ft | 292 kts | 269° |
| 2026-04-26 00:52 | 56.37828 | 86.24853 | 10271 ft | 283 kts | 269° |
| 2026-04-26 00:53 | 56.37856 | 86.21339 | 10145 ft | 276 kts | 269° |
| 2026-04-26 00:53 | 56.37881 | 86.17898 | 9931 ft | 274 kts | 269° |
| 2026-04-26 00:53 | 56.37906 | 86.14460 | 9623 ft | 273 kts | 269° |
| 2026-04-26 00:53 | 56.37931 | 86.11081 | 9337 ft | 271 kts | 268° |
| 2026-04-26 00:54 | 56.37953 | 86.07682 | 9027 ft | 270 kts | 268° |
| 2026-04-26 00:54 | 56.37974 | 86.04297 | 8742 ft | 268 kts | 268° |
| 2026-04-26 00:54 | 56.38001 | 86.00942 | 8448 ft | 266 kts | 270° |
| 2026-04-26 00:54 | 56.38415 | 85.97682 | 8159 ft | 269 kts | 289° |
| 2026-04-26 00:55 | 56.39127 | 85.94580 | 7889 ft | 267 kts | 289° |
| 2026-04-26 00:55 | 56.39820 | 85.91467 | 7599 ft | 266 kts | 288° |
| 2026-04-26 00:55 | 56.40493 | 85.88399 | 7320 ft | 265 kts | 288° |
| 2026-04-26 00:55 | 56.41165 | 85.85294 | 7029 ft | 265 kts | 288° |
| 2026-04-26 00:56 | 56.41832 | 85.82197 | 6749 ft | 264 kts | 287° |
| 2026-04-26 00:56 | 56.42492 | 85.79118 | 6466 ft | 263 kts | 287° |
| 2026-04-26 00:56 | 56.43146 | 85.76068 | 6167 ft | 257 kts | 287° |
| 2026-04-26 00:56 | 56.43781 | 85.73102 | 5887 ft | 249 kts | 287° |
| 2026-04-26 00:57 | 56.44394 | 85.70230 | 5624 ft | 240 kts | 287° |
| 2026-04-26 00:57 | 56.44985 | 85.67460 | 5368 ft | 232 kts | 287° |
| 2026-04-26 00:57 | 56.45558 | 85.64769 | 5139 ft | 225 kts | 286° |
| 2026-04-26 00:57 | 56.46109 | 85.62180 | 4903 ft | 217 kts | 286° |
| 2026-04-26 00:58 | 56.46632 | 85.59718 | 4830 ft | 207 kts | 286° |
| 2026-04-26 00:58 | 56.47135 | 85.57350 | 4745 ft | 196 kts | 285° |
| 2026-04-26 00:58 | 56.47617 | 85.55077 | 4620 ft | 190 kts | 285° |
| 2026-04-26 00:58 | 56.48167 | 85.52951 | 4506 ft | 185 kts | 297° |
| 2026-04-26 00:59 | 56.48885 | 85.51080 | 4439 ft | 177 kts | 297° |
| 2026-04-26 00:59 | 56.49574 | 85.49242 | 4356 ft | 175 kts | 297° |
| 2026-04-26 00:59 | 56.50247 | 85.47429 | 4297 ft | 172 kts | 296° |
| 2026-04-26 00:59 | 56.50913 | 85.45627 | 4184 ft | 174 kts | 296° |
| 2026-04-26 01:00 | 56.51578 | 85.43818 | 4006 ft | 175 kts | 296° |
| 2026-04-26 01:00 | 56.52250 | 85.41979 | 3834 ft | 174 kts | 293° |
| 2026-04-26 01:00 | 56.52517 | 85.39951 | 3655 ft | 162 kts | 259° |
| 2026-04-26 01:00 | 56.52143 | 85.38101 | 3488 ft | 155 kts | 228° |
| 2026-04-26 01:01 | 56.51333 | 85.36867 | 3357 ft | 152 kts | 221° |
| 2026-04-26 01:01 | 56.50535 | 85.35677 | 3188 ft | 146 kts | 219° |
| 2026-04-26 01:01 | 56.49724 | 85.34621 | 2989 ft | 140 kts | 216° |
| 2026-04-26 01:01 | 56.48922 | 85.33646 | 2835 ft | 136 kts | 216° |
| 2026-04-26 01:02 | 56.48192 | 85.32777 | 2680 ft | 119 kts | 216° |
| 2026-04-26 01:02 | 56.47532 | 85.31992 | 2508 ft | 113 kts | 216° |
| 2026-04-26 01:02 | 56.46885 | 85.31224 | 2374 ft | 111 kts | 216° |
| 2026-04-26 01:02 | 56.46241 | 85.30457 | 2235 ft | 111 kts | 216° |
| 2026-04-26 01:03 | 56.45598 | 85.29695 | 2091 ft | 109 kts | 215° |
| 2026-04-26 01:03 | 56.44979 | 85.28961 | 1977 ft | 107 kts | 215° |
| 2026-04-26 01:03 | 56.44351 | 85.28236 | 1814 ft | 107 kts | 214° |
| 2026-04-26 01:03 | 56.43732 | 85.27505 | 1686 ft | 107 kts | 214° |
| 2026-04-26 01:04 | 56.43110 | 85.26733 | 1532 ft | 113 kts | 214° |
| 2026-04-26 01:04 | 56.42441 | 85.25942 | 1433 ft | 118 kts | 210° |
| 2026-04-26 01:04 | 56.41726 | 85.25126 | 1276 ft | 123 kts | 213° |
| 2026-04-26 01:04 | 56.41004 | 85.24213 | 1079 ft | 133 kts | 213° |
| 2026-04-26 01:05 | 56.40219 | 85.23310 | 898 ft | 134 kts | 212° |
| 2026-04-26 01:05 | 56.39443 | 85.22382 | 702 ft | 131 kts | 212° |
| 2026-04-26 01:05 | 56.38694 | 85.21504 | 573 ft | 121 kts | 212° |
| 2026-04-26 01:05 | 56.38145 | 85.20861 | 571 ft | 62 kts | 210° |
| 2026-04-26 01:06 | 56.37943 | 85.20629 | 573 ft | 6 kts | 214° |
| 2026-04-26 01:06 | 56.37908 | 85.20599 | 571 ft | 5 kts | 214° |
| 2026-04-26 01:06 | 56.37910 | 85.20561 | 572 ft | 2 kts | 332° |
| 2026-04-26 01:06 | 56.37941 | 85.20594 | 571 ft | 9 kts | 39° |
| 2026-04-26 01:07 | 56.38012 | 85.20690 | 568 ft | 14 kts | 35° |
| 2026-04-26 01:07 | 56.38075 | 85.20749 | 573 ft | 9 kts | 356° |
| 2026-04-26 01:07 | 56.38123 | 85.20687 | 568 ft | 9 kts | 305° |
| 2026-04-26 01:07 | 56.38154 | 85.20599 | 570 ft | 8 kts | 303° |
| 2026-04-26 01:08 | 56.38183 | 85.20525 | 570 ft | 6 kts | 316° |
| 2026-04-26 01:08 | 56.38225 | 85.20529 | 571 ft | 8 kts | 27° |
| 2026-04-26 01:08 | 56.38286 | 85.20599 | 567 ft | 12 kts | 33° |
| 2026-04-26 01:08 | 56.38359 | 85.20686 | 569 ft | 13 kts | 33° |
| 2026-04-26 01:09 | 56.38432 | 85.20771 | 572 ft | 12 kts | 33° |
| 2026-04-26 01:09 | 56.38501 | 85.20854 | 572 ft | 12 kts | 33° |
| 2026-04-26 01:09 | 56.38570 | 85.20936 | 568 ft | 12 kts | 33° |
| 2026-04-26 01:09 | 56.38637 | 85.21015 | 570 ft | 11 kts | 33° |
| 2026-04-26 01:10 | 56.38698 | 85.21088 | 569 ft | 9 kts | 33° |
| 2026-04-26 01:10 | 56.38752 | 85.21152 | 574 ft | 9 kts | 34° |
| 2026-04-26 01:10 | 56.38805 | 85.21215 | 569 ft | 9 kts | 33° |
| 2026-04-26 01:10 | 56.38847 | 85.21248 | 567 ft | 6 kts | 356° |
| 2026-04-26 01:11 | 56.38874 | 85.21201 | 570 ft | 3 kts | 302° |
| 2026-04-26 01:11 | 56.38882 | 85.21177 | 570 ft | 0 kts | 302° |